Time;durP1;ratioP1;P1;durP2;ratioP2;P2;SDS_P1;SDS_P2;PMS_P1;PMS_P2;Temp;Humidity;BMP_temperature;BMP_pressure;BME280_temperature;BME280_humidity;BME280_pressure;Samples;Min_cycle;Max_cycle;Signal;HPM_P1;HPM_P2
2023/11/04 00:01:59;;;;;;;30.08;26.73;;;;;;;-145.63;54.35;39391.91;5037205;28;20029;-67
2023/11/04 00:04:25;;;;;;;28.60;24.40;;;;;;;-145.63;54.21;39352.81;5017622;28;20025;-67
2023/11/04 00:06:51;;;;;;;27.60;23.60;;;;;;;-145.63;54.69;39329.34;5023800;28;20325;-68
2023/11/04 00:09:16;;;;;;;28.77;24.75;;;;;;;-145.63;54.77;39176.78;5027198;28;20029;-67
2023/11/04 00:11:42;;;;;;;29.85;23.05;;;;;;;-145.63;54.55;39370.41;5012755;28;20195;-67
2023/11/04 00:14:08;;;;;;;26.25;23.48;;;;;;;-145.63;54.77;39366.50;5012096;28;20038;-67
2023/11/04 00:16:33;;;;;;;26.40;23.60;;;;;;;-145.63;54.26;39350.84;5008800;28;20049;-67
2023/11/04 00:18:59;;;;;;;29.27;24.50;;;;;;;-145.63;54.12;39352.81;5013544;28;20030;-67
2023/11/04 00:21:26;;;;;;;31.40;25.27;;;;;;;-145.63;54.59;39372.34;5023132;28;20092;-67
2023/11/04 00:23:52;;;;;;;28.67;25.05;;;;;;;-145.63;54.27;39370.41;5022819;28;20026;-67
2023/11/04 00:26:18;;;;;;;32.53;25.80;;;;;;;-145.63;54.32;39368.44;5003574;28;20068;-69
2023/11/04 00:28:44;;;;;;;33.45;24.65;;;;;;;-145.63;54.36;39372.34;5018358;28;20026;-67
2023/11/04 00:31:11;;;;;;;25.92;22.25;;;;;;;-145.63;54.21;39368.44;5012204;28;20215;-69
2023/11/04 00:33:57;;;;;;;28.42;22.70;;;;;;;-145.63;54.30;39339.13;5035394;28;20062;-68
2023/11/04 00:36:42;;;;;;;27.42;20.08;;;;;;;-145.63;54.74;39368.44;5028666;28;20096;-68
2023/11/04 00:39:28;;;;;;;29.65;20.95;;;;;;;-145.63;54.69;39358.66;5017539;28;20041;-66
2023/11/04 00:42:13;;;;;;;25.42;20.55;;;;;;;-145.63;54.69;39356.72;5006754;28;20041;-68
2023/11/04 00:44:59;;;;;;;25.40;21.05;;;;;;;-145.63;54.88;39401.69;5021454;28;20305;-68
2023/11/04 00:47:44;;;;;;;23.35;20.85;;;;;;;-145.63;54.65;39356.72;5030323;28;20041;-68
2023/11/04 00:50:30;;;;;;;27.20;21.08;;;;;;;-145.63;54.46;39348.88;5030078;28;20100;-67
2023/11/04 00:53:15;;;;;;;24.75;20.30;;;;;;;-145.63;54.50;39403.66;5016184;28;20045;-69
2023/11/04 00:56:01;;;;;;;25.63;20.70;;;;;;;-145.63;54.54;38684.00;5047803;28;20317;-68
2023/11/04 00:58:46;;;;;;;24.08;19.23;;;;;;;-145.63;53.94;39346.94;5006243;28;20118;-68
2023/11/04 01:01:32;;;;;;;21.65;18.75;;;;;;;-145.63;54.03;39337.16;5047138;28;20069;-68
2023/11/04 01:04:17;;;;;;;18.80;16.80;;;;;;;-145.63;54.56;39348.88;5014671;28;20031;-69
2023/11/04 01:07:04;;;;;;;18.48;16.55;;;;;;;-145.63;54.74;39350.84;5006182;28;20045;-69
2023/11/04 01:09:50;;;;;;;17.83;15.95;;;;;;;-145.63;54.61;39376.28;5014420;28;20044;-67
2023/11/04 01:12:35;;;;;;;17.80;15.82;;;;;;;-145.63;55.53;39337.16;5019053;28;20109;-68
2023/11/04 01:15:21;;;;;;;19.20;16.92;;;;;;;-145.63;54.90;39344.97;5014419;28;20050;-68
2023/11/04 01:18:07;;;;;;;17.05;15.45;;;;;;;-145.63;54.28;39346.94;5007874;28;20314;-68
2023/11/04 01:20:52;;;;;;;17.02;15.30;;;;;;;-145.63;54.16;39344.97;5025342;28;20209;-68
2023/11/04 01:23:38;;;;;;;16.73;15.02;;;;;;;-145.63;54.05;39384.09;5025322;28;20121;-69
2023/11/04 01:26:23;;;;;;;17.83;14.68;;;;;;;-145.63;54.00;39323.47;5005641;28;20034;-68
2023/11/04 01:29:11;;;;;;;14.93;13.40;;;;;;;-145.63;54.65;39321.50;5005543;28;20038;-68
2023/11/04 01:31:56;;;;;;;15.85;14.35;;;;;;;-145.63;54.07;39329.34;5022391;28;20207;-69
2023/11/04 01:34:42;;;;;;;16.23;14.45;;;;;;;-145.63;54.11;39343.03;5025296;28;20036;-69
2023/11/04 01:37:27;;;;;;;15.88;14.30;;;;;;;-145.63;54.16;39356.72;5024548;28;20097;-69
2023/11/04 01:40:13;;;;;;;17.05;15.40;;;;;;;-145.63;54.51;39331.28;5014163;28;20038;-68
2023/11/04 01:42:59;;;;;;;14.88;13.27;;;;;;;-145.63;54.42;39344.97;5041436;28;20037;-68
2023/11/04 01:45:44;;;;;;;15.70;14.20;;;;;;;-145.63;55.38;39321.50;5018728;28;20037;-70
2023/11/04 01:48:30;;;;;;;16.25;14.55;;;;;;;-145.63;55.07;39376.28;5037522;28;20021;-68
2023/11/04 01:51:15;;;;;;;15.63;14.05;;;;;;;-145.63;55.40;39344.97;5024402;28;20061;-69
2023/11/04 01:54:01;;;;;;;17.05;14.10;;;;;;;-145.63;54.88;39313.69;5037491;28;20034;-69
2023/11/04 01:56:47;;;;;;;14.90;13.38;;;;;;;-145.63;54.63;39337.16;5032812;28;20034;-69
2023/11/04 01:59:33;;;;;;;15.60;14.00;;;;;;;-145.63;53.96;39343.03;5032158;28;20042;-68
2023/11/04 02:02:21;;;;;;;16.27;14.25;;;;;;;-145.63;54.35;39317.59;5004555;28;20042;-69
2023/11/04 02:05:06;;;;;;;15.32;13.82;;;;;;;-145.63;54.61;39350.84;5018317;28;20046;-69
2023/11/04 02:07:52;;;;;;;16.88;15.07;;;;;;;-145.63;54.45;39344.97;5020610;28;20026;-68
2023/11/04 02:10:37;;;;;;;15.63;14.02;;;;;;;-145.63;54.44;39335.19;5037950;28;20033;-67
2023/11/04 02:13:23;;;;;;;17.27;15.30;;;;;;;-145.63;53.95;39358.66;5001988;28;20277;-67
2023/11/04 02:16:09;;;;;;;14.60;13.20;;;;;;;-145.63;54.14;39344.97;5015678;28;20046;-68
2023/11/04 02:18:55;;;;;;;16.13;14.63;;;;;;;-145.63;53.41;39344.97;5015892;28;20061;-69
2023/11/04 02:21:40;;;;;;;16.95;14.38;;;;;;;-145.63;53.45;39389.97;5049919;28;20211;-69
2023/11/04 02:24:26;;;;;;;15.77;14.00;;;;;;;-145.63;53.50;39343.03;5008639;28;20064;-67
2023/11/04 02:27:11;;;;;;;15.70;14.20;;;;;;;-145.63;53.81;39350.84;5021623;28;20021;-68
2023/11/04 02:29:57;;;;;;;34.35;25.60;;;;;;;-145.63;53.79;39356.72;5004486;28;20109;-67
2023/11/04 02:32:43;;;;;;;16.02;14.32;;;;;;;-145.63;54.43;39366.50;5023994;28;20061;-67
2023/11/04 02:35:28;;;;;;;16.30;14.60;;;;;;;-145.63;54.46;39325.41;5004319;28;20053;-68
2023/11/04 02:38:14;;;;;;;15.75;14.15;;;;;;;-145.63;54.25;39360.63;5022724;28;20334;-67
2023/11/04 02:40:59;;;;;;;15.57;13.75;;;;;;;-145.63;54.57;39325.41;5007813;28;20184;-67
2023/11/04 02:43:45;;;;;;;16.05;14.27;;;;;;;-145.63;54.47;39337.16;5032366;28;20257;-68
2023/11/04 02:46:30;;;;;;;17.70;14.73;;;;;;;-145.63;53.95;39370.41;5010901;28;20050;-69
2023/11/04 02:49:16;;;;;;;16.52;14.60;;;;;;;-145.63;53.65;39356.72;5031043;28;20072;-68
2023/11/04 02:52:02;;;;;;;14.90;13.40;;;;;;;-145.63;54.40;39337.16;5016627;28;20048;-68
2023/11/04 02:54:48;;;;;;;15.65;13.85;;;;;;;-145.63;53.81;39343.03;5050953;28;20030;-67
2023/11/04 02:57:34;;;;;;;16.15;14.45;;;;;;;-145.63;53.38;39360.63;5018633;28;20121;-67
2023/11/04 03:00:19;;;;;;;16.27;14.48;;;;;;;-145.63;53.80;39356.72;5034133;28;20030;-67
2023/11/04 03:03:05;;;;;;;16.35;14.27;;;;;;;-145.63;53.57;39372.34;5023484;28;20036;-67
2023/11/04 03:05:50;;;;;;;15.80;14.20;;;;;;;-145.63;53.85;39368.44;5023588;28;20041;-67
2023/11/04 03:08:36;;;;;;;15.45;13.85;;;;;;;-145.63;54.84;39348.88;5003739;28;20038;-67
2023/11/04 03:11:22;;;;;;;14.90;13.32;;;;;;;-145.63;54.28;39352.81;5017252;28;20076;-67
2023/11/04 03:14:08;;;;;;;17.40;14.05;;;;;;;-145.63;54.36;39343.03;5013188;28;20042;-67
2023/11/04 03:16:53;;;;;;;16.50;14.35;;;;;;;-145.63;55.34;39329.34;5022390;28;20025;-67
2023/11/04 03:19:39;;;;;;;17.33;15.18;;;;;;;-145.63;54.73;39313.69;5011197;28;20129;-67
2023/11/04 03:22:25;;;;;;;15.85;14.20;;;;;;;-145.63;54.49;39341.06;5009010;28;20046;-67
2023/11/04 03:25:12;;;;;;;15.57;13.57;;;;;;;-145.63;54.22;39360.63;5022411;28;20037;-67
2023/11/04 03:27:57;;;;;;;15.98;14.27;;;;;;;-145.63;54.71;39309.78;5015199;28;20089;-68
2023/11/04 03:30:43;;;;;;;15.43;13.88;;;;;;;-145.63;54.56;39343.03;5036388;28;20038;-68
2023/11/04 03:33:28;;;;;;;16.33;14.63;;;;;;;-145.63;54.53;39325.41;5022457;28;20049;-67
2023/11/04 03:36:14;;;;;;;15.88;13.50;;;;;;;-145.63;54.67;39315.66;5021014;28;20393;-67
2023/11/04 03:38:59;;;;;;;16.90;14.65;;;;;;;-145.63;55.14;39329.34;5004145;28;20373;-67
2023/11/04 03:41:46;;;;;;;17.20;15.38;;;;;;;-145.63;54.96;39311.72;5030771;28;20262;-68
2023/11/04 03:44:31;;;;;;;16.25;14.55;;;;;;;-145.63;54.49;39341.06;5002960;28;20409;-68
2023/11/04 03:47:17;;;;;;;16.17;14.55;;;;;;;-145.63;55.05;39333.25;5041497;28;20421;-67
2023/11/04 03:50:03;;;;;;;15.77;14.07;;;;;;;-145.63;55.07;39372.34;5013368;28;20081;-67
2023/11/04 03:52:48;;;;;;;15.93;14.32;;;;;;;-145.63;55.12;39337.16;5037343;28;20063;-67
2023/11/04 03:55:35;;;;;;;17.73;14.48;;;;;;;-145.63;54.68;39325.41;5027513;28;20084;-67
2023/11/04 03:58:20;;;;;;;16.17;14.32;;;;;;;-145.63;54.87;39323.47;5013355;28;20033;-69
2023/11/04 04:01:06;;;;;;;16.25;13.93;;;;;;;-145.63;54.99;39337.16;5022683;28;20068;-68
2023/11/04 04:03:51;;;;;;;17.10;15.07;;;;;;;-145.63;54.81;39337.16;5029827;28;20040;-68
2023/11/04 04:06:37;;;;;;;15.75;14.13;;;;;;;-145.63;55.09;39335.19;5035241;28;20337;-68
2023/11/04 04:09:22;;;;;;;16.55;14.85;;;;;;;-145.63;54.60;39366.50;5019620;28;20058;-69
2023/11/04 04:12:08;;;;;;;16.90;13.65;;;;;;;-145.63;54.86;39333.25;5039565;28;20038;-69
2023/11/04 04:14:54;;;;;;;15.27;13.70;;;;;;;-145.63;54.58;39339.13;5014449;28;20195;-68
2023/11/04 04:17:39;;;;;;;15.35;13.77;;;;;;;-145.63;54.32;39346.94;5016604;28;20216;-68
2023/11/04 04:20:26;;;;;;;17.30;15.20;;;;;;;-145.63;54.77;39352.81;5021751;28;20032;-68
2023/11/04 04:23:11;;;;;;;17.15;14.98;;;;;;;-145.63;54.62;39378.22;5022562;28;20026;-68
2023/11/04 04:25:57;;;;;;;19.30;14.85;;;;;;;-145.63;54.52;39344.97;5006947;28;20037;-68
2023/11/04 04:28:42;;;;;;;17.65;14.60;;;;;;;-145.63;55.20;39364.53;5016015;28;20046;-69
2023/11/04 04:31:28;;;;;;;17.50;14.50;;;;;;;-145.63;55.56;39370.41;5020848;28;20053;-68
2023/11/04 04:34:13;;;;;;;18.70;14.90;;;;;;;-145.63;55.72;39344.97;5016186;28;20149;-67
2023/11/04 04:36:59;;;;;;;16.00;13.80;;;;;;;-145.63;56.03;39337.16;5009775;28;20121;-68
2023/11/04 04:39:45;;;;;;;16.63;15.02;;;;;;;-145.63;55.82;39344.97;5025422;28;20033;-69
2023/11/04 04:42:31;;;;;;;19.05;15.38;;;;;;;-145.63;55.97;39325.41;5022674;28;20038;-68
2023/11/04 04:45:18;;;;;;;16.92;15.13;;;;;;;-145.63;56.14;39309.78;5035111;28;20070;-68
2023/11/04 04:48:03;;;;;;;17.25;15.45;;;;;;;-145.63;55.27;39341.06;5025945;28;20057;-66
2023/11/04 04:50:49;;;;;;;17.25;15.05;;;;;;;-145.63;55.38;39339.13;5008606;28;20045;-66
2023/11/04 04:53:36;;;;;;;19.00;15.65;;;;;;;-145.63;55.27;39317.59;5006354;28;20583;-67
2023/11/04 04:56:22;;;;;;;19.13;15.13;;;;;;;-145.63;55.50;39372.34;5018462;28;20337;-66
2023/11/04 04:59:08;;;;;;;18.77;15.57;;;;;;;-145.63;55.23;39368.44;5022737;28;20097;-68
2023/11/04 05:01:53;;;;;;;16.52;14.07;;;;;;;-145.63;55.36;39358.66;5025546;28;20045;-67
2023/11/04 05:04:39;;;;;;;18.83;15.93;;;;;;;-145.63;55.16;39380.19;5013028;28;20026;-66
2023/11/04 05:07:24;;;;;;;16.80;15.10;;;;;;;-145.63;55.33;39339.13;5016373;28;20036;-68
2023/11/04 05:10:10;;;;;;;17.10;15.30;;;;;;;-145.63;54.93;39344.97;5030594;28;20101;-68
2023/11/04 05:12:56;;;;;;;18.17;16.23;;;;;;;-145.63;56.08;39079.00;5022606;28;20041;-67
2023/11/04 05:15:43;;;;;;;17.90;15.98;;;;;;;-145.63;56.53;39325.41;5038091;28;20072;-66
2023/11/04 05:18:28;;;;;;;18.45;16.45;;;;;;;-145.63;56.09;39331.28;5022205;28;20317;-68
2023/11/04 05:21:16;;;;;;;18.67;15.30;;;;;;;-145.63;56.54;39337.16;5018923;28;20044;-66
2023/11/04 05:24:02;;;;;;;20.17;17.35;;;;;;;-145.63;56.32;39360.63;5013646;28;20042;-67
2023/11/04 05:26:47;;;;;;;18.45;16.30;;;;;;;-145.63;57.05;39317.59;5032017;28;20037;-68
2023/11/04 05:29:33;;;;;;;21.65;18.52;;;;;;;-145.63;56.84;39358.66;5006132;28;20038;-68
2023/11/04 05:32:18;;;;;;;20.77;18.58;;;;;;;-145.63;56.81;39360.63;5025091;28;20050;-68
2023/11/04 05:35:04;;;;;;;24.20;18.60;;;;;;;-145.63;55.97;39341.06;5006163;28;20048;-67
2023/11/04 05:37:50;;;;;;;20.27;18.02;;;;;;;-145.63;56.27;39325.41;5011923;28;20065;-68
2023/11/04 05:40:36;;;;;;;20.70;17.73;;;;;;;-145.63;56.07;39327.38;5016375;28;20041;-67
2023/11/04 05:43:22;;;;;;;20.40;18.23;;;;;;;-145.63;56.06;39343.03;5034462;28;20283;-68
2023/11/04 05:46:08;;;;;;;21.77;17.83;;;;;;;-145.63;56.23;39344.97;5032967;28;20045;-67
2023/11/04 05:48:54;;;;;;;22.52;18.58;;;;;;;-145.63;56.59;39325.41;5013060;28;20152;-67
2023/11/04 05:51:39;;;;;;;23.13;18.80;;;;;;;-145.63;56.27;39343.03;5024899;28;20030;-67
2023/11/04 05:54:25;;;;;;;21.80;18.05;;;;;;;-145.63;56.34;39360.63;5022461;28;20102;-68
2023/11/04 05:57:10;;;;;;;24.88;20.73;;;;;;;-145.63;55.65;39327.38;5032649;28;20046;-68
2023/11/04 05:59:56;;;;;;;25.05;19.88;;;;;;;-145.63;56.08;39321.50;5010962;28;20380;-67
2023/11/04 06:02:42;;;;;;;30.17;20.60;;;;;;;-145.63;55.88;39323.47;5021448;28;20053;-66
2023/11/04 06:05:28;;;;;;;23.48;20.58;;;;;;;-145.63;56.05;39323.47;5004468;28;20046;-67
2023/11/04 06:08:13;;;;;;;23.17;19.98;;;;;;;-145.63;55.95;39319.56;5043514;28;20225;-68
2023/11/04 06:10:59;;;;;;;21.98;19.30;;;;;;;-145.63;56.14;39305.88;5024017;28;20048;-67
2023/11/04 06:13:45;;;;;;;22.42;19.05;;;;;;;-145.63;55.84;39317.59;5018688;28;20093;-68
2023/11/04 06:16:34;;;;;;;24.02;20.92;;;;;;;-145.63;55.45;39321.50;5021941;28;20026;-68
2023/11/04 06:19:19;;;;;;;23.55;20.02;;;;;;;-145.63;55.41;39321.50;5022973;28;20318;-67
2023/11/04 06:22:05;;;;;;;26.30;21.25;;;;;;;-145.63;56.04;39294.13;5022450;28;20034;-67
2023/11/04 06:24:53;;;;;;;24.00;20.00;;;;;;;-145.63;55.63;39317.59;5023978;28;20030;-67
2023/11/04 06:27:39;;;;;;;23.55;20.08;;;;;;;-145.63;55.41;39280.44;5020499;28;20030;-67
2023/11/04 06:30:24;;;;;;;22.90;20.25;;;;;;;-145.63;55.88;39309.78;5039782;28;20061;-66
2023/11/04 06:33:10;;;;;;;25.27;21.08;;;;;;;-145.63;55.65;39296.09;5017614;28;20046;-68
2023/11/04 06:35:57;;;;;;;24.98;21.00;;;;;;;-145.63;55.31;39288.25;5004207;28;20045;-67
2023/11/04 06:38:43;;;;;;;23.98;21.40;;;;;;;-145.63;55.38;39300.00;5017742;28;20045;-65
2023/11/04 06:41:28;;;;;;;25.33;21.52;;;;;;;-145.63;54.96;39307.81;5022676;28;20069;-66
2023/11/04 06:44:14;;;;;;;26.73;20.85;;;;;;;-145.63;54.34;39300.00;5006953;28;20057;-65
2023/11/04 06:47:00;;;;;;;24.55;19.42;;;;;;;-145.63;54.58;39309.78;5004757;28;20040;-66
2023/11/04 06:49:45;;;;;;;21.70;19.25;;;;;;;-145.63;53.94;39311.72;5023534;28;20343;-66
2023/11/04 06:52:31;;;;;;;20.83;18.02;;;;;;;-145.63;54.85;39341.06;5023302;28;20329;-67
2023/11/04 06:54:57;;;;;;;21.85;19.33;;;;;;;-145.63;54.97;39321.50;5023761;28;20026;-65
2023/11/04 06:57:23;;;;;;;27.50;20.30;;;;;;;-145.63;54.88;38949.94;5020837;28;20093;-66
2023/11/04 06:59:49;;;;;;;22.08;19.65;;;;;;;-145.63;53.97;39284.34;5009493;28;20030;-67
2023/11/04 07:02:15;;;;;;;23.70;19.95;;;;;;;-145.63;54.45;39300.00;5013887;28;20192;-65
2023/11/04 07:04:41;;;;;;;22.75;19.80;;;;;;;-145.63;54.17;39311.72;5016272;28;20034;-67
2023/11/04 07:07:07;;;;;;;22.95;18.58;;;;;;;-145.63;54.15;39260.88;5020080;28;20022;-68
2023/11/04 07:09:35;;;;;;;21.60;19.00;;;;;;;-145.63;53.98;39362.59;5014709;28;20096;-65
2023/11/04 07:12:00;;;;;;;21.65;18.90;;;;;;;-145.63;53.82;39294.13;5008482;28;20033;-66
2023/11/04 07:14:26;;;;;;;21.92;18.08;;;;;;;-145.63;54.13;39305.88;5017145;28;20064;-68
2023/11/04 07:16:55;;;;;;;23.92;19.02;;;;;;;-145.63;54.66;39292.19;5022353;28;20033;-65
2023/11/04 07:19:22;;;;;;;19.98;16.92;;;;;;;-145.63;54.49;39284.34;5023117;28;20337;-66
2023/11/04 07:21:47;;;;;;;20.50;18.05;;;;;;;-145.63;54.91;39298.03;5022929;28;20030;-66
2023/11/04 07:24:13;;;;;;;22.63;19.35;;;;;;;-145.63;53.91;39290.22;5022715;28;20163;-65
2023/11/04 07:26:39;;;;;;;20.30;18.08;;;;;;;-145.63;54.25;39270.66;5022589;28;20084;-66
2023/11/04 07:29:06;;;;;;;23.10;19.42;;;;;;;-145.63;53.80;39319.56;5023276;28;20040;-64
2023/11/04 07:31:35;;;;;;;23.00;19.83;;;;;;;-145.63;53.59;39364.53;5023083;28;20044;-66
2023/11/04 07:34:02;;;;;;;25.77;20.42;;;;;;;-145.63;53.10;39280.44;5012155;28;20041;-67
2023/11/04 07:36:28;;;;;;;20.75;17.55;;;;;;;-145.63;53.27;39280.44;5019413;28;20026;-66
2023/11/04 07:38:56;;;;;;;21.30;18.13;;;;;;;-145.63;52.84;39307.81;5023325;28;20117;-67
2023/11/04 07:41:22;;;;;;;20.60;18.50;;;;;;;-145.63;52.97;39319.56;5023091;28;20029;-67
2023/11/04 07:43:48;;;;;;;23.85;18.65;;;;;;;-145.63;52.94;39294.13;5016892;28;20024;-66
2023/11/04 07:46:14;;;;;;;21.00;18.63;;;;;;;-145.63;52.65;39296.09;5023320;28;20025;-67
2023/11/04 07:48:40;;;;;;;19.55;17.10;;;;;;;-145.63;52.34;39309.78;5021802;28;20320;-66
2023/11/04 07:51:10;;;;;;;23.52;18.67;;;;;;;-145.63;53.44;39096.59;5018347;28;20032;-66
2023/11/04 07:53:36;;;;;;;22.48;17.77;;;;;;;-145.63;52.65;39329.34;5023257;28;20030;-67
2023/11/04 07:56:02;;;;;;;20.15;18.08;;;;;;;-145.63;52.56;39327.38;5037208;28;20053;-65
2023/11/04 07:58:27;;;;;;;27.98;18.75;;;;;;;-145.63;53.38;39309.78;5020977;28;20029;-66
2023/11/04 08:00:53;;;;;;;21.52;17.92;;;;;;;-145.63;52.50;39356.72;5022769;28;20037;-66
2023/11/04 08:03:20;;;;;;;20.45;16.92;;;;;;;-145.63;53.27;39305.88;5042649;28;20052;-65
2023/11/04 08:05:46;;;;;;;20.42;17.60;;;;;;;-145.63;53.04;39305.88;5043059;28;20045;-66
2023/11/04 08:08:14;;;;;;;19.52;15.77;;;;;;;-145.63;53.22;39325.41;5025422;28;20025;-65
2023/11/04 08:10:40;;;;;;;18.52;16.58;;;;;;;-145.63;52.81;39313.69;5031212;28;20072;-65
2023/11/04 08:13:06;;;;;;;19.05;16.98;;;;;;;-145.63;52.75;39309.78;5017536;28;20052;-65
2023/11/04 08:15:31;;;;;;;23.73;18.20;;;;;;;-145.63;52.72;39292.19;5006806;28;20037;-66
2023/11/04 08:17:59;;;;;;;19.23;16.60;;;;;;;-145.63;53.30;39307.81;5002399;28;20125;-66
2023/11/04 08:20:25;;;;;;;20.67;17.38;;;;;;;-145.63;52.86;39319.56;5019009;28;20026;-66
2023/11/04 08:22:51;;;;;;;21.92;16.75;;;;;;;-145.63;53.38;39301.94;5023159;28;20103;-66
2023/11/04 08:25:17;;;;;;;20.00;16.70;;;;;;;-145.63;53.21;39311.72;5015053;28;20034;-65
2023/11/04 08:27:44;;;;;;;18.35;16.10;;;;;;;-145.63;53.55;39329.34;5006991;28;20314;-66
2023/11/04 08:30:11;;;;;;;21.58;17.00;;;;;;;-145.63;53.07;39278.47;5038436;28;20083;-65
2023/11/04 08:32:36;;;;;;;20.02;16.75;;;;;;;-145.63;52.96;39311.72;5021326;28;20072;-66
2023/11/04 08:35:04;;;;;;;22.92;15.93;;;;;;;-145.63;53.03;39294.13;5023260;28;20057;-66
2023/11/04 08:37:31;;;;;;;18.35;15.93;;;;;;;-145.63;52.57;39311.72;5013596;28;20096;-67
2023/11/04 08:39:56;;;;;;;20.52;16.13;;;;;;;-145.63;53.14;39356.72;5039838;28;20034;-66
2023/11/04 08:42:22;;;;;;;18.38;16.42;;;;;;;-145.63;52.39;39343.03;5022771;28;20026;-67
2023/11/04 08:44:48;;;;;;;18.80;16.02;;;;;;;-145.63;52.42;39360.63;5003726;28;20026;-66
2023/11/04 08:47:14;;;;;;;17.85;16.00;;;;;;;-145.63;52.75;39380.19;5018593;28;20320;-67
2023/11/04 08:49:40;;;;;;;18.60;16.70;;;;;;;-145.63;52.95;39350.84;5022720;28;20085;-66
2023/11/04 08:52:05;;;;;;;21.13;16.67;;;;;;;-145.63;53.91;39372.34;5022969;28;20030;-66
2023/11/04 08:54:31;;;;;;;23.17;17.13;;;;;;;-145.63;53.53;39321.50;5024059;28;20097;-66
2023/11/04 08:56:57;;;;;;;19.35;16.42;;;;;;;-145.63;52.95;39333.25;5034222;28;20036;-67
2023/11/04 08:59:23;;;;;;;19.58;17.50;;;;;;;-145.63;52.90;39317.59;5012018;28;20057;-67
2023/11/04 09:01:51;;;;;;;21.70;17.23;;;;;;;-145.63;53.11;39388.00;5019268;28;20033;-67
2023/11/04 09:04:17;;;;;;;21.38;16.85;;;;;;;-145.63;53.20;39301.94;5021516;28;20025;-66
2023/11/04 09:06:43;;;;;;;23.25;16.55;;;;;;;-145.63;52.79;39337.16;5020199;28;20037;-66
2023/11/04 09:09:09;;;;;;;18.77;16.25;;;;;;;-145.63;52.66;39325.41;5003207;28;20025;-67
2023/11/04 09:11:35;;;;;;;22.20;16.75;;;;;;;-145.63;53.62;39309.78;5020864;28;20029;-66
2023/11/04 09:14:04;;;;;;;20.88;15.98;;;;;;;-145.63;53.53;39329.34;5010902;28;20073;-66
2023/11/04 09:16:33;;;;;;;22.63;16.45;;;;;;;-145.63;53.06;39354.75;5010653;28;20037;-65
2023/11/04 09:19:00;;;;;;;20.65;16.90;;;;;;;-145.63;52.79;39344.97;5001623;28;20038;-66
2023/11/04 09:21:26;;;;;;;21.52;16.40;;;;;;;-145.63;53.32;39393.88;5019797;28;20026;-67
2023/11/04 09:23:53;;;;;;;19.27;15.25;;;;;;;-145.63;53.13;39368.44;5025644;28;20021;-66
2023/11/04 09:26:20;;;;;;;18.80;15.82;;;;;;;-145.63;53.62;39372.34;5025620;28;20026;-66
2023/11/04 09:28:46;;;;;;;18.33;16.17;;;;;;;-145.63;53.43;39356.72;5037088;28;20028;-67
2023/11/04 09:31:13;;;;;;;20.70;16.83;;;;;;;-145.63;54.26;39395.84;5035063;28;20350;-68
2023/11/04 09:33:39;;;;;;;23.08;17.55;;;;;;;-145.63;54.27;39337.16;5049663;28;20026;-67
2023/11/04 09:36:05;;;;;;;21.25;16.30;;;;;;;-145.63;54.08;39313.69;5014246;28;20306;-67
2023/11/04 09:38:32;;;;;;;17.85;15.40;;;;;;;-145.63;54.31;39315.66;5024987;28;20322;-68
2023/11/04 09:40:58;;;;;;;19.35;15.65;;;;;;;-145.63;54.56;39313.69;5012757;28;20030;-70
2023/11/04 09:43:23;;;;;;;22.25;17.17;;;;;;;-145.63;53.98;39346.94;5013492;28;20117;-69
2023/11/04 09:45:49;;;;;;;20.83;16.63;;;;;;;-145.63;53.40;39352.81;5022518;28;20076;-71
2023/11/04 09:48:15;;;;;;;21.05;17.35;;;;;;;-145.63;53.95;39307.81;5039863;28;20137;-70
2023/11/04 09:50:40;;;;;;;20.77;15.93;;;;;;;-145.63;54.19;39321.50;5025299;28;20193;-70
2023/11/04 09:53:14;;;;;;;21.67;17.48;;;;;;;-145.63;53.69;39307.81;5031229;28;20030;-68
2023/11/04 09:55:41;;;;;;;23.88;18.67;;;;;;;-145.63;53.60;39348.88;5024908;28;20018;-68
2023/11/04 09:58:07;;;;;;;22.83;18.83;;;;;;;-145.63;53.90;39344.97;5021531;28;20377;-71
2023/11/04 10:00:36;;;;;;;19.92;16.65;;;;;;;-145.63;54.19;39319.56;5022762;28;20068;-70
2023/11/04 10:03:02;;;;;;;24.08;19.02;;;;;;;-145.63;53.84;39384.09;5022679;28;20069;-69
2023/11/04 10:05:28;;;;;;;23.25;17.45;;;;;;;-145.63;54.30;39309.78;5023358;28;20341;-69
2023/11/04 10:07:56;;;;;;;27.58;19.65;;;;;;;-145.63;54.17;39301.94;5023683;28;20022;-69
2023/11/04 10:10:22;;;;;;;21.60;17.98;;;;;;;-145.63;53.36;39372.34;5030456;28;20022;-70
2023/11/04 10:12:47;;;;;;;21.08;18.15;;;;;;;-145.63;53.38;39317.59;5019859;28;20097;-70
2023/11/04 10:15:13;;;;;;;19.40;17.33;;;;;;;-145.63;53.13;39329.34;5019952;28;20094;-68
2023/11/04 10:17:39;;;;;;;26.48;20.15;;;;;;;-145.63;52.53;39301.94;5023805;28;20026;-69
2023/11/04 10:20:11;;;;;;;22.08;16.77;;;;;;;-145.63;52.62;39344.97;5023612;28;20079;-69
2023/11/04 10:22:38;;;;;;;21.23;16.00;;;;;;;-145.63;52.52;39315.66;5023915;28;20034;-70
2023/11/04 10:25:07;;;;;;;17.45;15.35;;;;;;;-145.63;53.53;39344.97;5021123;28;20022;-69
2023/11/04 10:27:35;;;;;;;21.58;16.60;;;;;;;-145.63;53.67;39360.63;5021431;28;20044;-70
2023/11/04 10:30:02;;;;;;;19.88;16.77;;;;;;;-145.63;53.02;39364.53;5023101;28;20022;-71
2023/11/04 10:32:36;;;;;;;20.90;17.08;;;;;;;-145.63;53.19;39370.41;5022888;28;20049;-69
2023/11/04 10:35:03;;;;;;;21.75;16.38;;;;;;;-145.63;53.34;39388.00;5023052;28;20033;-68
2023/11/04 10:37:33;;;;;;;23.70;16.52;;;;;;;-145.63;53.53;39403.66;5021490;28;20036;-70
2023/11/04 10:40:06;;;;;;;22.40;15.57;;;;;;;-145.63;53.68;39368.44;5022711;28;20026;-69
2023/11/04 10:42:36;;;;;;;21.50;16.98;;;;;;;-145.63;53.48;39407.56;5021416;28;20026;-69
2023/11/04 10:45:13;;;;;;;18.88;16.70;;;;;;;-145.63;53.24;39393.88;5024212;28;20087;-69
2023/11/04 10:47:59;;;;;;;20.63;16.60;;;;;;;-145.63;53.94;39368.44;5022346;28;20384;-70
2023/11/04 10:50:39;;;;;;;20.17;16.88;;;;;;;-145.63;54.30;39352.81;5021337;28;20053;-69
2023/11/04 10:53:27;;;;;;;21.25;17.67;;;;;;;-145.63;53.98;39423.22;5023124;28;20026;-69
2023/11/04 10:56:07;;;;;;;21.55;17.35;;;;;;;-145.63;54.65;39376.28;5020159;28;20079;-70
2023/11/04 10:58:56;;;;;;;20.60;17.50;;;;;;;-145.63;54.12;39399.75;5021179;28;20049;-70
2023/11/04 11:01:24;;;;;;;22.70;17.92;;;;;;;-145.63;54.28;38701.59;5018773;28;20249;-70
2023/11/04 11:03:52;;;;;;;21.33;17.85;;;;;;;-145.63;54.80;39403.66;5025074;28;20026;-70
2023/11/04 11:06:18;;;;;;;24.02;18.27;;;;;;;-145.63;54.22;39409.53;5023631;28;20314;-70
2023/11/04 11:08:46;;;;;;;24.65;16.67;;;;;;;-145.63;55.11;39423.22;5023421;28;20026;-71
2023/11/04 11:11:27;;;;;;;21.63;17.63;;;;;;;-145.63;54.90;39431.03;5019113;28;20029;-69
2023/11/04 11:13:57;;;;;;;25.73;17.85;;;;;;;-145.63;54.17;39382.13;5013013;28;20026;-68
2023/11/04 11:16:24;;;;;;;20.38;17.70;;;;;;;-145.63;54.26;39388.00;5013312;28;20052;-69
2023/11/04 11:18:52;;;;;;;20.75;17.90;;;;;;;-145.63;54.55;39372.34;5020009;28;20080;-70
2023/11/04 11:21:20;;;;;;;21.05;18.67;;;;;;;-145.63;54.49;39391.91;5018592;28;20302;-71
2023/11/04 11:23:47;;;;;;;21.30;18.13;;;;;;;-145.63;54.65;39368.44;5006266;28;20026;-68
2023/11/04 11:26:13;;;;;;;18.50;16.40;;;;;;;-145.63;54.96;39407.56;5017854;28;20026;-70
2023/11/04 11:28:40;;;;;;;21.98;16.85;;;;;;;-145.63;55.84;39399.75;5014167;28;20179;-70
2023/11/04 11:31:13;;;;;;;21.23;16.48;;;;;;;-145.63;55.52;39413.44;5027127;28;20036;-69
2023/11/04 11:33:41;;;;;;;23.45;19.33;;;;;;;-145.63;55.36;39403.66;5023730;28;20037;-70
2023/11/04 11:36:10;;;;;;;20.25;17.13;;;;;;;-145.63;54.95;39382.13;5023526;28;20222;-70
2023/11/04 11:38:43;;;;;;;24.27;18.60;;;;;;;-145.63;55.01;39384.09;5023433;28;20021;-69
2023/11/04 11:41:10;;;;;;;18.33;16.05;;;;;;;-145.63;55.34;39458.41;5010550;28;20222;-68
2023/11/04 11:43:36;;;;;;;22.77;17.42;;;;;;;-145.63;55.08;39380.19;5020400;28;20389;-69
2023/11/04 11:46:06;;;;;;;25.42;17.88;;;;;;;-145.63;55.09;39423.22;5023178;28;20037;-70